Showers in the vicinity Current Weather (METAR) For Amsterdam Schiphol Airport

All times on the weather descriptions are local

Observed at 06:25 - (19 mins ago)

 Showers in the vicinity

10°C

Showers in the vicinity , Rain Showers
Clouds: Few Clouds at 1,800ft, Few Clouds at 2,500ft
Wind: 310° at 23 knots, gusting 35 knots
Visibility: Greater than 10km
QNH: 1013
Dew Point: 5°C
Runways with a headwind: Runway 24, Runway 27, Runways 36L/C/R

Sunrise Today: 08:17
Sunset Today: 18:33

Forecast Weather (TAF) For Amsterdam Schiphol Airport

Issued at 02:00 - (8 days 19 hrs ago)


Runways with a headwind: Unable to determine, wind is clam

Forecast valid until 02:00 on Friday

METAR/TAF RAW METAR / TAF

EHAM 220425Z 31023G35KT 9999 VCSH FEW018 FEW025CB 10/05 Q1013 TEMPO 6000 SHRA

Weather Widget

Put weather from any of our airports on your website with our weather widget.

Find Another Search

Airport Search


Please Wait Please Wait - Loading
Close
Close

Login

Username:

Password:

Remember Me:

Remember me on this computer

Forgotten your password? Get a reset password sent to your registered e-mail address

Close

User Private Message

Subject:

Message: